Corona, NY (11368)

6:33 PM EST on January 26, 2015 (GMT -0500)
Meadow Lake | Change Station
CLOSE
Current Station
Personal Weather Station
Location: New York, NY
Elevation: -10 ft
Nearby Weather Stations

Elev -10 ft 40.73 °N, 73.84 °W | Updated 2 minutes ago

Light Snow
Light Snow Mist
26.6 °F
Feels Like 15 °F
N
14.5
Wind Variable Wind from ENE
Gusts 25.3 mph

Today
High -- | Low -- °F
--% Chance of Precip.
Yesterday
High -- | Low -- °F
Precip. -- in
7:10 AM 5:05 PM
Waxing Crescent, 48% visible
Pressure 29.85 in
Visibility 2.0 miles
Clouds Mostly Cloudy 1400 ft
Overcast 1800 ft
Windchill 15 °F
Dew Point 25 °F
Humidity 93%
Rainfall -999.00 in
Snow Depth Not available.
UV 0 out of 12
Pollen .10 out of 12
Air Quality Not available.
Flu Activity Not available.
METAR KLGA 262251Z 04020G28KT 2SM -SN BR BKN014 OVC018 M03/M05 A2985 RMK AO2 PK WND 04032/2236 SLP107 P0001 T10281050 $

More Conditions Fewer Conditions

Pressure 29.85 in
Visibility 2.0 miles
Clouds Mostly Cloudy 1400 ft
Overcast 1800 ft
Windchill 15 °F
Dew Point 25 °F
Humidity 93%
Rainfall -999.00 in
Snow Depth Not available.
UV 0 out of 12
Pollen .10 out of 12
Air Quality Not available.
Flu Activity Not available.
METAR KLGA 262251Z 04020G28KT 2SM -SN BR BKN014 OVC018 M03/M05 A2985 RMK AO2 PK WND 04032/2236 SLP107 P0001 T10281050 $

More Conditions Fewer Conditions

10-Day Weather Forecast

Almanac

Astronomy

Jan. 26, 2015 Rise Set
Actual Time
Civil Twilight
Nautical Twilight
Astronomical Twilight
Moon
Length of Visible Light
Length of Day
Tomorrow will be .
, % of the Moon is Illuminated

Today's Extremes

State Highs State Lows

Community

WunderPhotos

Upload Photos

1,790,394 photos uploaded!

WunderBlogs® & News

Nearby

Air Quality

  Air Quality AQ Index Pollutant
Not available.

Snow Depth

Station Depth Elevation

Earthquake Activity

City Distance Mag. Time & Date
Minimum magnitude displayed is 2.5.

Coastal Water Temperatures

Place Temperature

Nearby Weather Stations